Station: Mackay  

  Atmospheric Gas Attenuation - ITU Rec 676-11   ----------------- dB/100km -----------------
Date Time Temp RH % AH g/m3 Dew Point Wind Direction Speed kph Gust kph Barometer mB Rainfall Since 9am 24GHz 47GHz 76GHz 122GHz 134GHz 241GHz
06/09 17:20 22 75 14.56 17.4 9 13 1016.3 0.2 31.8 33.3 59.8 157.9 166.8 578.6
06/09 17:10 22.5 74 14.78 17.6 9 15 1016.2 0.2 32.2 33.5 60.4 159.4 168.9 585.8
06/09 17:00 22.9 71 14.51 17.4 7 15 1016.2 0.2 31.6 32.9 58.9 155.5 164.2 569.4
06/09 16:50 23.6 71 15.1 18 9 15 1016.1 0.2 32.8 33.7 60.9 160.8 171.0 593.2
06/09 16:40 23.5 72 15.23 18.2 9 15 1016 0.2 33.1 33.9 61.6 162.5 173.0 600.4
06/09 16:30 23.1 72 14.88 17.8 11 17 1015.9 0.2 32.4 33.5 60.3 159.3 168.9 586.1
06/09 16:20 23.5 72 15.23 18.2 11 17 1015.8 0.2 33.1 33.9 61.5 162.5 173.0 600.3
06/09 16:10 23.8 70 15.06 18 13 17 1015.8 0.2 32.7 33.5 60.6 159.9 169.9 589.6
06/09 16:00 23.7 70 14.97 17.9 11 17 1015.8 0.2 32.5 33.4 60.3 159.1 168.9 585.9
06/09 15:50 23.6 69 14.67 17.6 11 17 1015.8 0.2 31.9 32.9 59.0 155.9 164.9 571.9
06/09 15:40 24.3 70 15.49 18.5 11 17 1015.9 0.2 33.6 34.1 62.0 163.9 174.9 607.0
06/09 15:30 24 69 15.01 18 13 19 1015.9 0.2 32.6 33.3 60.2 158.9 168.8 585.6
06/09 15:20 25.1 67 15.51 18.5 11 19 1016 0.2 33.5 33.8 61.5 162.4 173.4 601.8
06/09 15:10 24.6 68 15.3 18.3 13 19 1016.1 0.2 33.1 33.6 61.0 161.1 171.6 595.4
06/09 15:00 24.8 67 15.25 18.3 11 17 1016.2 0.2 33.0 33.5 60.6 160.1 170.4 591.5
06/09 14:50 24.5 68 15.22 18.2 15 20 1016.2 0.2 33.0 33.5 60.7 160.4 170.7 592.3
06/09 14:40 24.9 65 14.88 17.9 13 19 1016.2 0.2 32.2 32.8 59.0 155.7 165.0 572.7
06/09 14:30 25.4 66 15.54 18.6 13 20 1016.3 0.2 33.6 33.7 61.4 162.2 173.2 601.1
06/09 14:20 24.4 66 14.69 17.6 15 22 1016.4 0.2 31.9 32.6 58.6 154.6 163.5 567.3
06/09 14:10 25 66 15.19 18.2 13 20 1016.6 0.2 32.9 33.3 60.2 159.0 169.2 587.2
06/09 14:00 25 67 15.42 18.4 13 22 1016.7 0.2 33.4 33.7 61.2 161.7 172.4 598.5
06/09 13:50 25.1 67 15.51 18.5 13 22 1016.8 0.2 33.5 33.8 61.5 162.5 173.5 602.1
06/09 13:40 25 70 16.11 19.1 17 24 1016.9 0.2 34.8 34.9 64.2 169.7 182.2 632.7
06/09 13:30 24.4 69 15.36 18.3 15 20 1017 0.2 33.3 33.8 61.5 162.3 173.0 600.3
06/09 13:20 23.5 74 15.65 18.6 19 24 1017.2 0.2 34.0 34.7 63.5 167.6 179.2 622.0
06/09 13:10 24.3 72 15.93 18.9 17 22 1017.3 0.2 34.5 34.9 64.0 169.2 181.4 629.6
06/09 13:00 24.8 72 16.39 19.4 15 22 1017.3 0.2 35.4 35.5 65.7 173.5 186.8 648.6
06/09 12:50 24.1 71 15.53 18.5 17 22 1017.4 0.2 33.7 34.3 62.5 164.9 176.1 611.3
06/09 12:40 24.5 70 15.67 18.7 15 24 1017.5 0.2 33.9 34.4 62.8 165.7 177.2 615.1
06/09 12:30 24.1 75 16.41 19.4 13 20 1017.7 0.2 35.5 35.8 66.4 175.4 188.9 655.8
06/09 12:20 24.5 72 16.11 19.1 13 22 1018 0.2 34.8 35.2 64.7 170.9 183.6 637.3
06/09 12:10 24.1 72 15.75 18.7 13 20 1018.2 0.2 34.1 34.7 63.5 167.6 179.4 622.6
06/09 12:00 23.3 74 15.47 18.4 15 20 1018.3 0.2 33.6 34.5 62.9 166.1 177.2 615.0
06/09 11:50 23.7 75 16.04 19 13 19 1018.6 0.2 34.8 35.4 65.1 172.0 184.6 640.7
06/09 11:40 23.6 74 15.74 18.7 13 19 1018.8 0.2 34.1 34.9 63.9 168.7 180.5 626.4
06/09 11:30 23.3 75 15.68 18.6 13 20 1018.9 0.2 34.0 34.9 63.9 168.6 180.4 625.9
06/09 11:20 23.2 74 15.38 18.3 11 19 1019.2 0.2 33.4 34.4 62.6 165.4 176.3 611.7
06/09 11:10 23.7 75 16.04 19 13 17 1019.3 0.2 34.8 35.4 65.2 172.1 184.7 641.0
06/09 11:00 23.5 74 15.65 18.6 11 17 1019.5 0.2 34.0 34.8 63.6 167.9 179.5 623.0
06/09 10:50 23.8 75 16.13 19.1 11 19 1019.7 0.2 34.9 35.5 65.5 173.0 185.8 645.0
06/09 10:40 23.2 75 15.59 18.5 11 19 1019.8 0.2 33.8 34.8 63.6 167.9 179.4 622.5
06/09 10:30 23.5 76 16.07 19 9 17 1019.9 0.2 34.8 35.6 65.5 173.0 185.7 644.5
06/09 10:20 23.6 72 15.31 18.3 9 15 1020 0.2 33.2 34.2 62.0 163.8 174.5 605.4
06/09 10:10 23.5 70 14.8 17.7 9 15 1020.1 0.2 32.2 33.3 59.9 158.1 167.4 580.9
06/09 10:00 23.4 72 15.14 18.1 9 15 1020.2 0.2 32.9 34.0 61.5 162.3 172.5 598.5
06/09 09:50 23.8 72 15.49 18.4 7 13 1020.2 0.2 33.6 34.4 62.7 165.5 176.6 612.9
06/09 09:40 23 71 14.59 17.5 9 11 1020.2 0.2 31.7 33.2 59.4 156.7 165.6 574.3
06/09 09:30 23.2 71 14.76 17.7 7 11 1020.3 0.2 32.1 33.4 60.0 158.3 167.6 581.2
06/09 09:20 22.8 74 15.04 17.9 7 11 1020.3 0 32.7 34.0 61.5 162.4 172.5 598.2
06/09 09:10 22.3 79 15.6 18.5 7 13 1020.2 0 33.9 35.2 64.4 170.1 181.8 630.6
06/09 09:00 22 82 15.91 18.8 7 13 1020.3 0 34.6 35.9 66.1 174.5 187.1 649.2
06/09 08:50 21.3 83 15.47 18.3 9 13 1020.2 0 33.8 35.4 64.7 170.7 182.2 632.2
06/09 08:40 21.1 86 15.84 18.7 9 13 1020.2 0 34.6 36.2 66.5 175.7 188.3 653.2
06/09 08:30 20.5 85 15.12 17.9 9 15 1020.2 0 33.1 35.1 63.7 168.3 179.0 620.6
06/09 08:20 20.1 87 15.12 17.9 9 15 1020.1 0 33.1 35.3 64.1 169.1 179.9 623.8
06/09 08:10 19.5 91 15.27 18 11 15 1020 0 33.5 35.8 65.3 172.3 183.6 636.6
06/09 08:00 18.8 91 14.65 17.3 13 17 1019.9 0 32.2 34.9 63.0 166.2 175.9 609.6
06/09 07:50 18.3 92 14.38 17 11 15 1019.9 0 31.7 34.6 62.1 164.0 173.0 599.4
06/09 07:40 17.9 93 14.2 16.8 9 11 1019.7 0 31.3 34.5 61.6 162.6 171.2 593.0
06/09 07:30 17.5 93 13.86 16.4 9 11 1019.5 0 30.6 34.0 60.4 159.3 166.9 578.2
06/09 07:20 16.8 94 13.44 15.8 9 13 1019.5 0 29.8 33.5 59.0 155.6 162.2 561.6
06/09 07:10 16.3 95 13.18 15.5 9 13 1019.6 0 29.2 33.2 58.2 153.5 159.4 551.7
06/09 07:00 15.9 95 12.87 15.1 11 17 1019.6 0 28.6 32.8 57.1 150.5 155.6 538.5
06/09 06:50 15.6 96 12.77 15 13 20 1019.5 0 28.4 32.7 56.9 149.9 154.7 535.3
06/09 06:40 15.5 97 12.82 15 11 15 1019.4 0 28.5 32.8 57.2 150.7 155.6 538.6
06/09 06:30 15.4 98 12.88 15.1 11 15 1019.3 0 28.7 33.0 57.5 151.6 156.7 542.4
06/09 06:20 15.3 98 12.8 15 11 15 1019.2 0 28.5 32.9 57.2 150.8 155.7 538.9
06/09 06:10 15.3 98 12.8 15 11 13 1019.1 0 28.5 32.9 57.2 150.8 155.7 538.9
06/09 06:00 15.4 98 12.88 15.1 9 13 1018.9 0 28.7 33.0 57.5 151.5 156.7 542.2
06/09 05:50 15.5 98 12.95 15.2 11 13 1018.9 0 28.8 33.1 57.7 152.2 157.5 545.2
06/09 05:40 15.6 98 13.03 15.3 9 13 1018.9 0 29.0 33.2 58.0 153.0 158.5 548.7
06/09 05:30 15.7 97 12.98 15.2 7 11 1018.8 0 28.9 33.0 57.7 152.1 157.5 545.3
06/09 05:20 15.8 98 13.19 15.5 7 11 1018.8 0 29.3 33.4 58.6 154.5 160.5 555.5
06/09 05:10 16 98 13.35 15.7 9 11 1018.8 0 29.6 33.6 59.2 156.1 162.5 562.5
06/09 05:00 16.1 98 13.43 15.8 9 11 1018.5 0 29.8 33.7 59.4 156.8 163.4 565.8
06/09 04:50 16 98 13.35 15.7 9 11 1018.4 0 29.6 33.6 59.2 156.0 162.4 562.3
06/09 04:40 15.9 98 13.27 15.6 9 13 1018.3 0 29.5 33.5 58.9 155.2 161.4 558.8
06/09 04:30 15.9 98 13.27 15.6 9 11 1018.1 0 29.5 33.5 58.8 155.2 161.4 558.7
06/09 04:20 16 98 13.35 15.7 9 13 1018.1 0 29.6 33.6 59.1 156.0 162.4 562.2
06/09 04:10 16 98 13.35 15.7 7 11 1018.1 0 29.6 33.6 59.1 156.0 162.4 562.2
06/09 04:00 16.1 98 13.43 15.8 7 13 1017.9 0 29.8 33.7 59.4 156.7 163.3 565.6
06/09 03:50 16.2 98 13.51 15.9 9 11 1018.1 0 30.0 33.8 59.7 157.5 164.4 569.1
06/09 03:40 16.2 98 13.51 15.9 9 15 1018.2 0 30.0 33.8 59.7 157.5 164.4 569.1
06/09 03:30 16.3 98 13.6 16 9 15 1018.2 0 30.2 33.9 60.1 158.4 165.5 573.1
06/09 03:20 16.3 98 13.6 16 11 15 1018.3 0 30.2 33.9 60.1 158.4 165.5 573.2
06/09 03:10 16.3 97 13.46 15.8 9 13 1018.4 0 29.9 33.7 59.4 156.7 163.4 565.9
06/09 03:00 16.5 97 13.62 16 9 15 1018.4 0 30.2 33.9 60.0 158.3 165.4 572.8
06/09 02:50 16.6 97 13.7 16.1 11 15 1018.5 0 30.3 34.0 60.3 159.1 166.4 576.3
06/09 02:40 16.6 97 13.7 16.1 11 15 1018.5 0 30.3 34.0 60.3 159.1 166.4 576.3
06/09 02:30 16.7 97 13.78 16.2 11 15 1018.5 0 30.5 34.1 60.6 159.8 167.4 579.7
06/09 02:20 16.8 97 13.87 16.3 9 15 1018.5 0 30.7 34.2 60.9 160.7 168.5 583.7
06/09 02:10 16.9 97 13.95 16.4 9 13 1018.5 0 30.9 34.3 61.2 161.5 169.5 587.1
06/09 02:00 16.9 97 13.95 16.4 9 13 1018.5 0 30.9 34.3 61.2 161.5 169.5 587.1
06/09 01:50 17 97 14.03 16.5 9 13 1018.8 0 31.0 34.5 61.5 162.3 170.5 590.7
06/09 01:40 17.1 97 14.12 16.6 9 13 1018.9 0 31.2 34.6 61.9 163.2 171.7 594.7
06/09 01:30 17.1 97 14.12 16.6 9 13 1018.8 0 31.2 34.6 61.9 163.2 171.7 594.7
06/09 01:20 17.2 97 14.2 16.7 11 15 1019.1 0 31.4 34.7 62.2 164.0 172.7 598.3
06/09 01:10 17.3 97 14.29 16.8 9 13 1019.3 0 31.6 34.8 62.5 165.0 173.8 602.3
06/09 01:00 17.3 96 14.14 16.7 9 13 1019.3 0 31.2 34.6 61.8 163.1 171.6 594.4
06/09 00:50 17.4 96 14.23 16.8 9 11 1019.4 0 31.4 34.7 62.2 164.0 172.7 598.4

Last Refresh: 06-Sep-2026 17:00:02

Bureau of Meteorology